sensor_id;sensor_type;location;lat;lon;timestamp;temperature;humidity
10336;DHT22;5213;53.548;9.930;2023-07-22T00:00:50;12.90;1.00
10336;DHT22;5213;53.548;9.930;2023-07-22T00:03:15;12.80;1.00
10336;DHT22;5213;53.548;9.930;2023-07-22T00:05:41;12.70;1.00
10336;DHT22;5213;53.548;9.930;2023-07-22T00:08:07;12.70;1.00
10336;DHT22;5213;53.548;9.930;2023-07-22T00:10:33;12.70;1.00
10336;DHT22;5213;53.548;9.930;2023-07-22T00:12:58;12.60;1.00
10336;DHT22;5213;53.548;9.930;2023-07-22T00:15:24;12.70;1.00
10336;DHT22;5213;53.548;9.930;2023-07-22T00:17:51;12.60;1.00
10336;DHT22;5213;53.548;9.930;2023-07-22T00:20:17;12.60;1.00
10336;DHT22;5213;53.548;9.930;2023-07-22T00:22:42;12.60;1.00
10336;DHT22;5213;53.548;9.930;2023-07-22T00:25:12;12.60;1.00
10336;DHT22;5213;53.548;9.930;2023-07-22T00:27:39;12.60;1.00
10336;DHT22;5213;53.548;9.930;2023-07-22T00:30:06;12.50;1.00
10336;DHT22;5213;53.548;9.930;2023-07-22T00:32:32;12.50;1.00
10336;DHT22;5213;53.548;9.930;2023-07-22T00:34:58;12.40;1.00
10336;DHT22;5213;53.548;9.930;2023-07-22T00:37:24;12.50;1.00
10336;DHT22;5213;53.548;9.930;2023-07-22T00:39:51;12.50;1.00
10336;DHT22;5213;53.548;9.930;2023-07-22T00:42:16;12.50;1.00
10336;DHT22;5213;53.548;9.930;2023-07-22T00:44:42;12.40;1.00
10336;DHT22;5213;53.548;9.930;2023-07-22T00:47:08;12.40;1.00
10336;DHT22;5213;53.548;9.930;2023-07-22T00:49:35;12.50;1.00
10336;DHT22;5213;53.548;9.930;2023-07-22T00:52:02;12.50;1.00
10336;DHT22;5213;53.548;9.930;2023-07-22T00:54:29;12.50;1.00
10336;DHT22;5213;53.548;9.930;2023-07-22T00:56:56;12.50;1.00
10336;DHT22;5213;53.548;9.930;2023-07-22T00:59:22;12.40;1.00
10336;DHT22;5213;53.548;9.930;2023-07-22T01:01:48;12.40;1.00
10336;DHT22;5213;53.548;9.930;2023-07-22T01:04:15;12.40;1.00
10336;DHT22;5213;53.548;9.930;2023-07-22T01:06:43;12.40;1.00
10336;DHT22;5213;53.548;9.930;2023-07-22T01:09:09;12.40;1.00
10336;DHT22;5213;53.548;9.930;2023-07-22T01:11:35;12.40;1.00
10336;DHT22;5213;53.548;9.930;2023-07-22T01:14:01;12.40;1.00
10336;DHT22;5213;53.548;9.930;2023-07-22T01:16:27;12.40;1.00
10336;DHT22;5213;53.548;9.930;2023-07-22T01:18:54;12.40;1.00
10336;DHT22;5213;53.548;9.930;2023-07-22T01:21:22;12.30;1.00
10336;DHT22;5213;53.548;9.930;2023-07-22T01:23:49;12.30;1.00
10336;DHT22;5213;53.548;9.930;2023-07-22T01:26:15;12.20;1.00
10336;DHT22;5213;53.548;9.930;2023-07-22T01:28:41;12.20;1.00
10336;DHT22;5213;53.548;9.930;2023-07-22T01:31:07;12.20;1.00
10336;DHT22;5213;53.548;9.930;2023-07-22T01:33:33;12.20;1.00
10336;DHT22;5213;53.548;9.930;2023-07-22T01:35:59;12.20;1.00
10336;DHT22;5213;53.548;9.930;2023-07-22T01:38:25;12.20;1.00
10336;DHT22;5213;53.548;9.930;2023-07-22T01:40:51;12.10;1.00
10336;DHT22;5213;53.548;9.930;2023-07-22T01:43:16;12.10;1.00
10336;DHT22;5213;53.548;9.930;2023-07-22T01:45:42;12.10;1.00
10336;DHT22;5213;53.548;9.930;2023-07-22T01:48:08;12.00;1.00
10336;DHT22;5213;53.548;9.930;2023-07-22T01:50:33;12.00;1.00
10336;DHT22;5213;53.548;9.930;2023-07-22T01:52:59;12.00;1.00
10336;DHT22;5213;53.548;9.930;2023-07-22T01:55:25;12.00;1.00
10336;DHT22;5213;53.548;9.930;2023-07-22T01:57:51;12.00;1.00
10336;DHT22;5213;53.548;9.930;2023-07-22T02:00:16;12.00;1.00
10336;DHT22;5213;53.548;9.930;2023-07-22T02:02:42;11.90;1.00
10336;DHT22;5213;53.548;9.930;2023-07-22T02:05:08;11.90;1.00
10336;DHT22;5213;53.548;9.930;2023-07-22T02:07:37;11.90;1.00
10336;DHT22;5213;53.548;9.930;2023-07-22T02:10:03;11.90;1.00
10336;DHT22;5213;53.548;9.930;2023-07-22T02:12:29;11.80;1.00
10336;DHT22;5213;53.548;9.930;2023-07-22T02:14:55;11.80;1.00
10336;DHT22;5213;53.548;9.930;2023-07-22T02:17:20;11.80;1.00
10336;DHT22;5213;53.548;9.930;2023-07-22T02:19:46;11.80;1.00
10336;DHT22;5213;53.548;9.930;2023-07-22T02:22:12;11.80;1.00
10336;DHT22;5213;53.548;9.930;2023-07-22T02:24:38;11.70;1.00
10336;DHT22;5213;53.548;9.930;2023-07-22T02:27:04;11.70;1.00
10336;DHT22;5213;53.548;9.930;2023-07-22T02:29:30;11.70;1.00
10336;DHT22;5213;53.548;9.930;2023-07-22T02:31:58;11.70;1.00
10336;DHT22;5213;53.548;9.930;2023-07-22T02:34:24;11.70;1.00
10336;DHT22;5213;53.548;9.930;2023-07-22T02:36:50;11.70;1.00
10336;DHT22;5213;53.548;9.930;2023-07-22T02:39:15;11.70;1.00
10336;DHT22;5213;53.548;9.930;2023-07-22T02:41:41;11.70;1.00
10336;DHT22;5213;53.548;9.930;2023-07-22T02:44:07;11.70;1.00
10336;DHT22;5213;53.548;9.930;2023-07-22T02:46:33;11.70;1.00
10336;DHT22;5213;53.548;9.930;2023-07-22T02:48:59;11.60;1.00
10336;DHT22;5213;53.548;9.930;2023-07-22T02:51:24;11.60;1.00
10336;DHT22;5213;53.548;9.930;2023-07-22T02:53:50;11.60;1.00
10336;DHT22;5213;53.548;9.930;2023-07-22T02:56:16;11.60;1.00
10336;DHT22;5213;53.548;9.930;2023-07-22T02:58:41;11.60;1.00
10336;DHT22;5213;53.548;9.930;2023-07-22T03:01:07;11.60;1.00
10336;DHT22;5213;53.548;9.930;2023-07-22T03:03:34;11.60;1.00
10336;DHT22;5213;53.548;9.930;2023-07-22T03:06:01;11.70;1.00
10336;DHT22;5213;53.548;9.930;2023-07-22T03:08:27;11.80;1.00
10336;DHT22;5213;53.548;9.930;2023-07-22T03:10:53;11.80;1.00
10336;DHT22;5213;53.548;9.930;2023-07-22T03:13:18;11.70;1.00
10336;DHT22;5213;53.548;9.930;2023-07-22T03:15:44;11.60;1.00
10336;DHT22;5213;53.548;9.930;2023-07-22T03:18:10;11.60;1.00
10336;DHT22;5213;53.548;9.930;2023-07-22T03:20:37;11.60;1.00
10336;DHT22;5213;53.548;9.930;2023-07-22T03:23:03;11.70;1.00
10336;DHT22;5213;53.548;9.930;2023-07-22T03:25:30;11.70;1.00
10336;DHT22;5213;53.548;9.930;2023-07-22T03:27:55;11.70;99.90
10336;DHT22;5213;53.548;9.930;2023-07-22T03:30:22;11.80;99.90
10336;DHT22;5213;53.548;9.930;2023-07-22T03:32:49;11.90;99.90
10336;DHT22;5213;53.548;9.930;2023-07-22T03:35:16;11.90;99.90
10336;DHT22;5213;53.548;9.930;2023-07-22T03:37:43;11.90;5.90
10336;DHT22;5213;53.548;9.930;2023-07-22T03:40:09;11.90;10.00
10336;DHT22;5213;53.548;9.930;2023-07-22T03:42:50;12.00;1.00
10336;DHT22;5213;53.548;9.930;2023-07-22T03:45:16;12.10;29.80
10336;DHT22;5213;53.548;9.930;2023-07-22T03:47:44;12.10;1.00
10336;DHT22;5213;53.548;9.930;2023-07-22T03:50:10;12.20;15.80
10336;DHT22;5213;53.548;9.930;2023-07-22T03:52:35;12.20;1.00
10336;DHT22;5213;53.548;9.930;2023-07-22T03:55:01;12.10;1.00
10336;DHT22;5213;53.548;9.930;2023-07-22T03:57:27;12.10;1.00
10336;DHT22;5213;53.548;9.930;2023-07-22T03:59:57;12.20;1.00
10336;DHT22;5213;53.548;9.930;2023-07-22T04:02:23;12.20;1.00
10336;DHT22;5213;53.548;9.930;2023-07-22T04:04:51;12.20;1.00
10336;DHT22;5213;53.548;9.930;2023-07-22T04:07:17;12.20;1.00
10336;DHT22;5213;53.548;9.930;2023-07-22T04:09:43;12.30;1.00
10336;DHT22;5213;53.548;9.930;2023-07-22T04:12:09;12.30;1.00
10336;DHT22;5213;53.548;9.930;2023-07-22T04:14:34;12.40;1.00
10336;DHT22;5213;53.548;9.930;2023-07-22T04:17:00;12.30;1.00
10336;DHT22;5213;53.548;9.930;2023-07-22T04:19:26;12.30;1.00
10336;DHT22;5213;53.548;9.930;2023-07-22T04:21:51;12.30;1.00
10336;DHT22;5213;53.548;9.930;2023-07-22T04:24:17;12.30;1.00
10336;DHT22;5213;53.548;9.930;2023-07-22T04:26:43;12.30;1.00
10336;DHT22;5213;53.548;9.930;2023-07-22T04:29:10;12.40;1.00
10336;DHT22;5213;53.548;9.930;2023-07-22T04:31:37;12.40;1.00
10336;DHT22;5213;53.548;9.930;2023-07-22T04:34:03;12.50;1.00
10336;DHT22;5213;53.548;9.930;2023-07-22T04:36:29;12.50;1.00
10336;DHT22;5213;53.548;9.930;2023-07-22T04:38:54;12.60;1.00
10336;DHT22;5213;53.548;9.930;2023-07-22T04:41:20;12.70;1.00
10336;DHT22;5213;53.548;9.930;2023-07-22T04:43:46;12.90;1.00
10336;DHT22;5213;53.548;9.930;2023-07-22T04:46:13;12.90;1.00
10336;DHT22;5213;53.548;9.930;2023-07-22T04:48:38;12.70;1.00
10336;DHT22;5213;53.548;9.930;2023-07-22T04:51:04;12.70;1.00
10336;DHT22;5213;53.548;9.930;2023-07-22T04:53:30;12.60;1.00
10336;DHT22;5213;53.548;9.930;2023-07-22T04:55:55;12.60;1.00
10336;DHT22;5213;53.548;9.930;2023-07-22T04:58:21;12.70;1.00
10336;DHT22;5213;53.548;9.930;2023-07-22T05:00:47;12.70;1.00
10336;DHT22;5213;53.548;9.930;2023-07-22T05:03:13;12.80;1.00
10336;DHT22;5213;53.548;9.930;2023-07-22T05:05:39;12.90;1.00
10336;DHT22;5213;53.548;9.930;2023-07-22T05:08:05;13.00;1.00
10336;DHT22;5213;53.548;9.930;2023-07-22T05:10:32;13.10;1.00
10336;DHT22;5213;53.548;9.930;2023-07-22T05:12:58;13.20;1.00
10336;DHT22;5213;53.548;9.930;2023-07-22T05:15:23;13.30;1.00
10336;DHT22;5213;53.548;9.930;2023-07-22T05:17:49;13.40;1.00
10336;DHT22;5213;53.548;9.930;2023-07-22T05:20:15;13.50;1.00
10336;DHT22;5213;53.548;9.930;2023-07-22T05:22:41;13.60;1.00
10336;DHT22;5213;53.548;9.930;2023-07-22T05:25:08;13.70;1.00
10336;DHT22;5213;53.548;9.930;2023-07-22T05:27:35;13.70;1.00
10336;DHT22;5213;53.548;9.930;2023-07-22T05:30:00;13.80;1.00
10336;DHT22;5213;53.548;9.930;2023-07-22T05:32:28;14.00;1.00
10336;DHT22;5213;53.548;9.930;2023-07-22T05:34:55;14.10;1.00
10336;DHT22;5213;53.548;9.930;2023-07-22T05:37:22;14.10;1.00
10336;DHT22;5213;53.548;9.930;2023-07-22T05:39:47;14.20;1.00
10336;DHT22;5213;53.548;9.930;2023-07-22T05:42:13;14.50;1.00
10336;DHT22;5213;53.548;9.930;2023-07-22T05:44:39;14.30;1.00
10336;DHT22;5213;53.548;9.930;2023-07-22T05:47:04;14.20;1.00
10336;DHT22;5213;53.548;9.930;2023-07-22T05:49:30;14.10;1.00
10336;DHT22;5213;53.548;9.930;2023-07-22T05:51:56;14.30;1.00
10336;DHT22;5213;53.548;9.930;2023-07-22T05:54:21;14.30;1.00
10336;DHT22;5213;53.548;9.930;2023-07-22T05:56:47;14.40;1.00
10336;DHT22;5213;53.548;9.930;2023-07-22T05:59:13;14.50;99.90
10336;DHT22;5213;53.548;9.930;2023-07-22T06:01:38;14.70;99.90
10336;DHT22;5213;53.548;9.930;2023-07-22T06:04:04;14.80;99.90
10336;DHT22;5213;53.548;9.930;2023-07-22T06:06:30;15.00;99.90
10336;DHT22;5213;53.548;9.930;2023-07-22T06:08:56;15.10;99.90
10336;DHT22;5213;53.548;9.930;2023-07-22T06:11:21;15.20;99.90
10336;DHT22;5213;53.548;9.930;2023-07-22T06:13:47;15.30;99.90
10336;DHT22;5213;53.548;9.930;2023-07-22T06:16:13;15.20;99.90
10336;DHT22;5213;53.548;9.930;2023-07-22T06:18:39;15.00;99.90
10336;DHT22;5213;53.548;9.930;2023-07-22T06:21:05;15.00;99.90
10336;DHT22;5213;53.548;9.930;2023-07-22T06:23:31;15.00;99.90
10336;DHT22;5213;53.548;9.930;2023-07-22T06:25:57;14.90;99.90
10336;DHT22;5213;53.548;9.930;2023-07-22T06:28:22;14.90;99.90
10336;DHT22;5213;53.548;9.930;2023-07-22T06:30:48;15.00;99.90
10336;DHT22;5213;53.548;9.930;2023-07-22T06:33:14;15.10;99.90
10336;DHT22;5213;53.548;9.930;2023-07-22T06:35:39;15.00;99.90
10336;DHT22;5213;53.548;9.930;2023-07-22T06:38:05;15.10;99.90
10336;DHT22;5213;53.548;9.930;2023-07-22T06:40:30;15.20;99.90
10336;DHT22;5213;53.548;9.930;2023-07-22T06:42:56;15.40;99.90
10336;DHT22;5213;53.548;9.930;2023-07-22T06:45:22;15.70;99.90
10336;DHT22;5213;53.548;9.930;2023-07-22T06:47:47;15.70;99.90
10336;DHT22;5213;53.548;9.930;2023-07-22T06:50:13;15.60;99.90
10336;DHT22;5213;53.548;9.930;2023-07-22T06:52:38;15.70;99.90
10336;DHT22;5213;53.548;9.930;2023-07-22T06:55:05;16.00;99.90
10336;DHT22;5213;53.548;9.930;2023-07-22T06:57:30;16.10;99.90
10336;DHT22;5213;53.548;9.930;2023-07-22T06:59:57;16.10;99.90
10336;DHT22;5213;53.548;9.930;2023-07-22T07:02:22;16.40;91.40
10336;DHT22;5213;53.548;9.930;2023-07-22T07:04:49;16.30;64.70
10336;DHT22;5213;53.548;9.930;2023-07-22T07:07:15;16.40;46.80
10336;DHT22;5213;53.548;9.930;2023-07-22T07:09:41;16.80;28.40
10336;DHT22;5213;53.548;9.930;2023-07-22T07:12:08;16.80;1.00
10336;DHT22;5213;53.548;9.930;2023-07-22T07:14:34;16.70;1.00
10336;DHT22;5213;53.548;9.930;2023-07-22T07:17:00;16.80;1.00
10336;DHT22;5213;53.548;9.930;2023-07-22T07:19:26;17.00;1.00
10336;DHT22;5213;53.548;9.930;2023-07-22T07:21:52;16.90;1.00
10336;DHT22;5213;53.548;9.930;2023-07-22T07:24:18;17.00;1.00
10336;DHT22;5213;53.548;9.930;2023-07-22T07:26:43;17.00;1.00
10336;DHT22;5213;53.548;9.930;2023-07-22T07:29:09;16.80;1.00
10336;DHT22;5213;53.548;9.930;2023-07-22T07:31:36;16.80;1.00
10336;DHT22;5213;53.548;9.930;2023-07-22T07:34:02;17.10;1.00
10336;DHT22;5213;53.548;9.930;2023-07-22T07:36:28;17.20;1.00
10336;DHT22;5213;53.548;9.930;2023-07-22T07:38:53;17.30;1.00
10336;DHT22;5213;53.548;9.930;2023-07-22T07:41:19;17.30;1.00
10336;DHT22;5213;53.548;9.930;2023-07-22T07:43:45;17.00;1.00
10336;DHT22;5213;53.548;9.930;2023-07-22T07:46:19;17.00;1.00
10336;DHT22;5213;53.548;9.930;2023-07-22T07:48:56;17.40;1.00
10336;DHT22;5213;53.548;9.930;2023-07-22T07:51:23;17.50;1.00
10336;DHT22;5213;53.548;9.930;2023-07-22T07:53:50;17.60;1.00
10336;DHT22;5213;53.548;9.930;2023-07-22T07:56:17;17.90;1.00
10336;DHT22;5213;53.548;9.930;2023-07-22T07:58:43;18.10;1.00
10336;DHT22;5213;53.548;9.930;2023-07-22T08:01:10;18.20;1.00
10336;DHT22;5213;53.548;9.930;2023-07-22T08:03:36;18.00;1.00
10336;DHT22;5213;53.548;9.930;2023-07-22T08:06:02;17.80;1.00
10336;DHT22;5213;53.548;9.930;2023-07-22T08:08:28;17.90;1.00
10336;DHT22;5213;53.548;9.930;2023-07-22T08:11:11;18.00;1.00
10336;DHT22;5213;53.548;9.930;2023-07-22T08:13:39;18.00;1.00
10336;DHT22;5213;53.548;9.930;2023-07-22T08:16:07;18.30;1.00
10336;DHT22;5213;53.548;9.930;2023-07-22T08:18:34;18.30;1.00
10336;DHT22;5213;53.548;9.930;2023-07-22T08:21:00;18.60;1.00
10336;DHT22;5213;53.548;9.930;2023-07-22T08:23:26;18.40;1.00
10336;DHT22;5213;53.548;9.930;2023-07-22T08:25:52;18.10;1.00
10336;DHT22;5213;53.548;9.930;2023-07-22T08:28:17;18.10;1.00
10336;DHT22;5213;53.548;9.930;2023-07-22T08:30:43;18.00;1.00
10336;DHT22;5213;53.548;9.930;2023-07-22T08:33:10;18.00;1.00
10336;DHT22;5213;53.548;9.930;2023-07-22T08:35:39;17.80;99.90
10336;DHT22;5213;53.548;9.930;2023-07-22T08:38:05;17.50;99.90
10336;DHT22;5213;53.548;9.930;2023-07-22T08:40:38;17.40;99.90
10336;DHT22;5213;53.548;9.930;2023-07-22T08:43:05;17.50;99.90
10336;DHT22;5213;53.548;9.930;2023-07-22T08:45:33;18.00;99.90
10336;DHT22;5213;53.548;9.930;2023-07-22T08:48:03;18.50;99.90
10336;DHT22;5213;53.548;9.930;2023-07-22T08:51:35;18.70;99.90
10336;DHT22;5213;53.548;9.930;2023-07-22T08:53:30;18.80;99.90
10336;DHT22;5213;53.548;9.930;2023-07-22T08:55:58;19.00;99.90
10336;DHT22;5213;53.548;9.930;2023-07-22T08:58:25;19.00;99.90
10336;DHT22;5213;53.548;9.930;2023-07-22T09:00:51;19.10;99.90
10336;DHT22;5213;53.548;9.930;2023-07-22T09:03:18;19.20;99.90
10336;DHT22;5213;53.548;9.930;2023-07-22T09:05:45;19.50;99.90
10336;DHT22;5213;53.548;9.930;2023-07-22T09:08:10;19.50;99.90
10336;DHT22;5213;53.548;9.930;2023-07-22T09:10:37;19.20;99.90
10336;DHT22;5213;53.548;9.930;2023-07-22T09:13:03;18.70;99.90
10336;DHT22;5213;53.548;9.930;2023-07-22T09:15:29;18.70;99.90
10336;DHT22;5213;53.548;9.930;2023-07-22T09:17:54;18.70;99.90
10336;DHT22;5213;53.548;9.930;2023-07-22T09:20:21;18.90;99.90
10336;DHT22;5213;53.548;9.930;2023-07-22T09:22:48;18.80;99.90
10336;DHT22;5213;53.548;9.930;2023-07-22T09:25:22;19.10;99.90
10336;DHT22;5213;53.548;9.930;2023-07-22T09:27:49;19.50;99.90
10336;DHT22;5213;53.548;9.930;2023-07-22T09:30:35;19.40;99.90
10336;DHT22;5213;53.548;9.930;2023-07-22T09:33:02;19.10;99.90
10336;DHT22;5213;53.548;9.930;2023-07-22T09:35:30;19.20;99.90
10336;DHT22;5213;53.548;9.930;2023-07-22T09:37:56;19.10;99.90
10336;DHT22;5213;53.548;9.930;2023-07-22T09:40:24;19.30;99.90
10336;DHT22;5213;53.548;9.930;2023-07-22T09:42:51;19.30;99.90
10336;DHT22;5213;53.548;9.930;2023-07-22T09:45:18;19.50;99.90
10336;DHT22;5213;53.548;9.930;2023-07-22T09:47:46;19.70;99.90
10336;DHT22;5213;53.548;9.930;2023-07-22T09:50:20;19.70;99.90
10336;DHT22;5213;53.548;9.930;2023-07-22T09:52:49;20.10;99.90
10336;DHT22;5213;53.548;9.930;2023-07-22T09:55:22;20.60;99.90
10336;DHT22;5213;53.548;9.930;2023-07-22T09:57:59;20.40;99.90
10336;DHT22;5213;53.548;9.930;2023-07-22T10:00:29;19.90;99.90
10336;DHT22;5213;53.548;9.930;2023-07-22T10:02:59;19.60;99.90
10336;DHT22;5213;53.548;9.930;2023-07-22T10:05:26;19.80;99.90
10336;DHT22;5213;53.548;9.930;2023-07-22T10:07:53;19.50;99.90
10336;DHT22;5213;53.548;9.930;2023-07-22T10:10:21;19.80;99.90
10336;DHT22;5213;53.548;9.930;2023-07-22T10:12:48;20.00;99.90
10336;DHT22;5213;53.548;9.930;2023-07-22T10:15:14;20.20;99.90
10336;DHT22;5213;53.548;9.930;2023-07-22T10:17:42;20.40;99.90
10336;DHT22;5213;53.548;9.930;2023-07-22T10:20:12;20.30;99.90
10336;DHT22;5213;53.548;9.930;2023-07-22T10:22:44;19.90;99.90
10336;DHT22;5213;53.548;9.930;2023-07-22T10:25:13;19.60;99.90
10336;DHT22;5213;53.548;9.930;2023-07-22T10:27:40;19.80;99.90
10336;DHT22;5213;53.548;9.930;2023-07-22T10:30:07;19.60;99.90
10336;DHT22;5213;53.548;9.930;2023-07-22T10:32:47;19.60;99.90
10336;DHT22;5213;53.548;9.930;2023-07-22T10:37:46;20.00;99.90
10336;DHT22;5213;53.548;9.930;2023-07-22T10:40:26;20.30;99.90
10336;DHT22;5213;53.548;9.930;2023-07-22T10:43:03;20.40;99.90
10336;DHT22;5213;53.548;9.930;2023-07-22T10:45:33;20.50;99.90
10336;DHT22;5213;53.548;9.930;2023-07-22T10:48:12;20.70;99.90
10336;DHT22;5213;53.548;9.930;2023-07-22T10:50:52;20.50;99.90
10336;DHT22;5213;53.548;9.930;2023-07-22T11:04:11;20.70;99.90
10336;DHT22;5213;53.548;9.930;2023-07-22T11:14:46;21.30;99.90
10336;DHT22;5213;53.548;9.930;2023-07-22T11:17:13;21.50;99.50
10336;DHT22;5213;53.548;9.930;2023-07-22T11:19:39;21.60;97.70
10336;DHT22;5213;53.548;9.930;2023-07-22T11:22:06;21.90;97.40
10336;DHT22;5213;53.548;9.930;2023-07-22T11:24:35;21.90;96.30
10336;DHT22;5213;53.548;9.930;2023-07-22T11:27:07;22.00;94.60
10336;DHT22;5213;53.548;9.930;2023-07-22T11:29:36;22.30;92.00
10336;DHT22;5213;53.548;9.930;2023-07-22T11:32:02;22.30;91.10
10336;DHT22;5213;53.548;9.930;2023-07-22T11:34:28;22.10;91.70
10336;DHT22;5213;53.548;9.930;2023-07-22T11:36:55;22.00;92.00
10336;DHT22;5213;53.548;9.930;2023-07-22T11:39:25;21.80;92.90
10336;DHT22;5213;53.548;9.930;2023-07-22T11:41:51;21.70;91.50
10336;DHT22;5213;53.548;9.930;2023-07-22T11:44:19;21.50;91.60
10336;DHT22;5213;53.548;9.930;2023-07-22T11:47:13;21.40;93.00
10336;DHT22;5213;53.548;9.930;2023-07-22T11:49:40;21.20;94.40
10336;DHT22;5213;53.548;9.930;2023-07-22T11:52:12;21.10;94.30
10336;DHT22;5213;53.548;9.930;2023-07-22T11:54:42;21.00;94.50
10336;DHT22;5213;53.548;9.930;2023-07-22T11:57:18;21.00;95.90
10336;DHT22;5213;53.548;9.930;2023-07-22T11:59:50;21.30;95.30
10336;DHT22;5213;53.548;9.930;2023-07-22T12:02:23;21.40;94.80
10336;DHT22;5213;53.548;9.930;2023-07-22T12:07:23;22.20;91.50
10336;DHT22;5213;53.548;9.930;2023-07-22T12:09:49;22.60;86.40
10336;DHT22;5213;53.548;9.930;2023-07-22T12:12:15;22.90;81.70
10336;DHT22;5213;53.548;9.930;2023-07-22T12:14:41;23.50;74.70
10336;DHT22;5213;53.548;9.930;2023-07-22T12:17:08;23.60;69.50
10336;DHT22;5213;53.548;9.930;2023-07-22T12:19:34;23.70;66.50
10336;DHT22;5213;53.548;9.930;2023-07-22T12:22:00;23.60;62.80
10336;DHT22;5213;53.548;9.930;2023-07-22T12:24:27;23.20;65.30
10336;DHT22;5213;53.548;9.930;2023-07-22T12:26:53;22.60;79.80
10336;DHT22;5213;53.548;9.930;2023-07-22T12:29:18;22.50;68.50
10336;DHT22;5213;53.548;9.930;2023-07-22T12:31:44;22.10;73.10
10336;DHT22;5213;53.548;9.930;2023-07-22T12:34:10;21.50;78.10
10336;DHT22;5213;53.548;9.930;2023-07-22T12:36:35;21.20;81.40
10336;DHT22;5213;53.548;9.930;2023-07-22T12:39:01;20.80;85.00
10336;DHT22;5213;53.548;9.930;2023-07-22T12:41:26;20.50;91.10
10336;DHT22;5213;53.548;9.930;2023-07-22T12:43:52;20.40;92.40
10336;DHT22;5213;53.548;9.930;2023-07-22T12:46:18;20.40;94.30
10336;DHT22;5213;53.548;9.930;2023-07-22T12:48:43;20.30;96.00
10336;DHT22;5213;53.548;9.930;2023-07-22T12:51:09;20.10;95.80
10336;DHT22;5213;53.548;9.930;2023-07-22T12:53:35;20.00;98.20
10336;DHT22;5213;53.548;9.930;2023-07-22T12:56:00;19.80;99.60
10336;DHT22;5213;53.548;9.930;2023-07-22T12:58:28;19.60;99.90
10336;DHT22;5213;53.548;9.930;2023-07-22T13:00:54;19.50;99.90
10336;DHT22;5213;53.548;9.930;2023-07-22T13:03:20;19.10;99.90
10336;DHT22;5213;53.548;9.930;2023-07-22T13:05:45;19.00;99.90
10336;DHT22;5213;53.548;9.930;2023-07-22T13:08:11;18.90;99.90
10336;DHT22;5213;53.548;9.930;2023-07-22T13:10:37;19.00;99.90
10336;DHT22;5213;53.548;9.930;2023-07-22T13:13:05;19.00;99.90
10336;DHT22;5213;53.548;9.930;2023-07-22T13:15:32;19.00;99.90
10336;DHT22;5213;53.548;9.930;2023-07-22T13:17:58;19.00;99.90
10336;DHT22;5213;53.548;9.930;2023-07-22T13:20:23;19.00;99.90
10336;DHT22;5213;53.548;9.930;2023-07-22T13:22:49;19.00;99.90
10336;DHT22;5213;53.548;9.930;2023-07-22T13:25:14;18.70;99.90
10336;DHT22;5213;53.548;9.930;2023-07-22T13:27:40;18.40;99.90
10336;DHT22;5213;53.548;9.930;2023-07-22T13:30:09;18.10;99.90
10336;DHT22;5213;53.548;9.930;2023-07-22T13:32:35;17.90;99.90
10336;DHT22;5213;53.548;9.930;2023-07-22T13:35:01;17.60;99.90
10336;DHT22;5213;53.548;9.930;2023-07-22T13:37:26;17.30;99.90
10336;DHT22;5213;53.548;9.930;2023-07-22T13:39:52;17.10;99.90
10336;DHT22;5213;53.548;9.930;2023-07-22T13:42:18;17.40;99.90
10336;DHT22;5213;53.548;9.930;2023-07-22T13:44:44;17.80;99.90
10336;DHT22;5213;53.548;9.930;2023-07-22T13:47:10;18.30;99.90
10336;DHT22;5213;53.548;9.930;2023-07-22T13:49:35;18.70;99.90
10336;DHT22;5213;53.548;9.930;2023-07-22T13:52:01;19.20;99.90
10336;DHT22;5213;53.548;9.930;2023-07-22T13:54:27;19.60;99.90
10336;DHT22;5213;53.548;9.930;2023-07-22T13:56:52;19.70;99.90
10336;DHT22;5213;53.548;9.930;2023-07-22T13:59:18;20.00;99.90
10336;DHT22;5213;53.548;9.930;2023-07-22T14:01:43;20.20;99.90
10336;DHT22;5213;53.548;9.930;2023-07-22T14:04:09;20.40;99.90
10336;DHT22;5213;53.548;9.930;2023-07-22T14:06:34;20.50;99.90
10336;DHT22;5213;53.548;9.930;2023-07-22T14:09:00;20.50;99.90
10336;DHT22;5213;53.548;9.930;2023-07-22T14:11:26;20.60;99.90
10336;DHT22;5213;53.548;9.930;2023-07-22T14:13:52;20.50;99.90
10336;DHT22;5213;53.548;9.930;2023-07-22T14:16:18;20.20;99.90
10336;DHT22;5213;53.548;9.930;2023-07-22T14:18:43;19.90;99.90
10336;DHT22;5213;53.548;9.930;2023-07-22T14:21:09;20.10;99.90
10336;DHT22;5213;53.548;9.930;2023-07-22T14:23:37;20.50;99.90
10336;DHT22;5213;53.548;9.930;2023-07-22T14:26:02;20.20;99.90
10336;DHT22;5213;53.548;9.930;2023-07-22T14:28:28;20.10;99.90
10336;DHT22;5213;53.548;9.930;2023-07-22T14:30:53;20.00;99.90
10336;DHT22;5213;53.548;9.930;2023-07-22T14:33:19;19.90;99.90
10336;DHT22;5213;53.548;9.930;2023-07-22T14:35:44;19.70;99.90
10336;DHT22;5213;53.548;9.930;2023-07-22T14:38:10;19.60;99.90
10336;DHT22;5213;53.548;9.930;2023-07-22T14:40:36;19.50;99.90
10336;DHT22;5213;53.548;9.930;2023-07-22T14:43:02;19.40;99.90
10336;DHT22;5213;53.548;9.930;2023-07-22T14:45:28;19.20;99.90
10336;DHT22;5213;53.548;9.930;2023-07-22T14:47:53;19.30;99.90
10336;DHT22;5213;53.548;9.930;2023-07-22T14:50:19;19.20;99.90
10336;DHT22;5213;53.548;9.930;2023-07-22T14:52:44;19.00;99.90
10336;DHT22;5213;53.548;9.930;2023-07-22T14:55:10;18.70;99.90
10336;DHT22;5213;53.548;9.930;2023-07-22T14:57:36;18.50;99.90
10336;DHT22;5213;53.548;9.930;2023-07-22T15:00:02;18.70;99.90
10336;DHT22;5213;53.548;9.930;2023-07-22T15:02:27;18.80;99.90
10336;DHT22;5213;53.548;9.930;2023-07-22T15:04:53;18.80;99.90
10336;DHT22;5213;53.548;9.930;2023-07-22T15:07:18;19.00;99.90
10336;DHT22;5213;53.548;9.930;2023-07-22T15:09:44;18.90;99.90
10336;DHT22;5213;53.548;9.930;2023-07-22T15:12:09;18.80;99.90
10336;DHT22;5213;53.548;9.930;2023-07-22T15:14:36;18.80;99.90
10336;DHT22;5213;53.548;9.930;2023-07-22T15:17:02;18.90;99.90
10336;DHT22;5213;53.548;9.930;2023-07-22T15:19:28;18.90;99.90
10336;DHT22;5213;53.548;9.930;2023-07-22T15:21:53;18.80;99.90
10336;DHT22;5213;53.548;9.930;2023-07-22T15:24:19;18.80;99.90
10336;DHT22;5213;53.548;9.930;2023-07-22T15:26:45;18.70;99.90
10336;DHT22;5213;53.548;9.930;2023-07-22T15:29:10;18.70;99.90
10336;DHT22;5213;53.548;9.930;2023-07-22T15:31:36;18.60;99.90
10336;DHT22;5213;53.548;9.930;2023-07-22T15:34:02;18.30;99.90
10336;DHT22;5213;53.548;9.930;2023-07-22T15:36:27;18.00;99.90
10336;DHT22;5213;53.548;9.930;2023-07-22T15:38:53;18.00;99.90
10336;DHT22;5213;53.548;9.930;2023-07-22T15:41:18;18.10;99.90
10336;DHT22;5213;53.548;9.930;2023-07-22T15:43:44;17.70;99.90
10336;DHT22;5213;53.548;9.930;2023-07-22T15:46:10;17.80;99.90
10336;DHT22;5213;53.548;9.930;2023-07-22T15:48:35;17.70;99.90
10336;DHT22;5213;53.548;9.930;2023-07-22T15:51:01;17.80;99.90
10336;DHT22;5213;53.548;9.930;2023-07-22T15:53:26;17.80;99.90
10336;DHT22;5213;53.548;9.930;2023-07-22T15:55:52;17.90;99.90
10336;DHT22;5213;53.548;9.930;2023-07-22T15:58:17;18.00;99.90
10336;DHT22;5213;53.548;9.930;2023-07-22T16:00:45;18.00;99.90
10336;DHT22;5213;53.548;9.930;2023-07-22T16:03:10;18.00;99.90
10336;DHT22;5213;53.548;9.930;2023-07-22T16:05:37;17.90;99.90
10336;DHT22;5213;53.548;9.930;2023-07-22T16:08:03;17.70;99.90
10336;DHT22;5213;53.548;9.930;2023-07-22T16:10:29;17.60;99.90
10336;DHT22;5213;53.548;9.930;2023-07-22T16:12:56;17.30;99.90